sensor_id;sensor_type;location;lat;lon;timestamp;temperature;humidity
22471;DHT22;11402;51.374;6.594;2023-03-23T00:01:07;12.80;99.90
22471;DHT22;11402;51.374;6.594;2023-03-23T00:03:36;12.80;99.90
22471;DHT22;11402;51.374;6.594;2023-03-23T00:06:02;12.80;99.90
22471;DHT22;11402;51.374;6.594;2023-03-23T00:08:37;12.70;99.90
22471;DHT22;11402;51.374;6.594;2023-03-23T00:11:14;12.80;99.90
22471;DHT22;11402;51.374;6.594;2023-03-23T00:13:41;12.80;99.90
22471;DHT22;11402;51.374;6.594;2023-03-23T00:16:08;12.80;99.90
22471;DHT22;11402;51.374;6.594;2023-03-23T00:18:49;12.80;99.90
22471;DHT22;11402;51.374;6.594;2023-03-23T00:21:32;12.70;99.90
22471;DHT22;11402;51.374;6.594;2023-03-23T00:24:03;12.80;99.90
22471;DHT22;11402;51.374;6.594;2023-03-23T00:26:29;12.80;99.90
22471;DHT22;11402;51.374;6.594;2023-03-23T00:28:55;12.80;99.90
22471;DHT22;11402;51.374;6.594;2023-03-23T00:31:21;12.70;99.90
22471;DHT22;11402;51.374;6.594;2023-03-23T00:33:46;12.80;99.90
22471;DHT22;11402;51.374;6.594;2023-03-23T00:36:13;12.80;99.90
22471;DHT22;11402;51.374;6.594;2023-03-23T00:38:40;12.80;99.90
22471;DHT22;11402;51.374;6.594;2023-03-23T00:41:07;12.80;99.90
22471;DHT22;11402;51.374;6.594;2023-03-23T00:43:33;12.70;99.90
22471;DHT22;11402;51.374;6.594;2023-03-23T00:46:02;12.70;99.90
22471;DHT22;11402;51.374;6.594;2023-03-23T00:48:33;12.70;99.90
22471;DHT22;11402;51.374;6.594;2023-03-23T00:51:02;12.70;99.90
22471;DHT22;11402;51.374;6.594;2023-03-23T00:53:32;12.60;99.90
22471;DHT22;11402;51.374;6.594;2023-03-23T00:55:58;12.60;99.90
22471;DHT22;11402;51.374;6.594;2023-03-23T00:58:23;12.60;99.90
22471;DHT22;11402;51.374;6.594;2023-03-23T01:00:49;12.60;99.90
22471;DHT22;11402;51.374;6.594;2023-03-23T01:03:15;12.60;99.90
22471;DHT22;11402;51.374;6.594;2023-03-23T01:05:44;12.60;99.90
22471;DHT22;11402;51.374;6.594;2023-03-23T01:08:12;12.60;99.90
22471;DHT22;11402;51.374;6.594;2023-03-23T01:10:38;12.60;99.90
22471;DHT22;11402;51.374;6.594;2023-03-23T01:13:05;12.60;99.90
22471;DHT22;11402;51.374;6.594;2023-03-23T01:15:31;12.50;99.90
22471;DHT22;11402;51.374;6.594;2023-03-23T01:17:57;12.60;99.90
22471;DHT22;11402;51.374;6.594;2023-03-23T01:20:23;12.50;99.90
22471;DHT22;11402;51.374;6.594;2023-03-23T01:22:48;12.50;99.90
22471;DHT22;11402;51.374;6.594;2023-03-23T01:25:14;12.60;99.90
22471;DHT22;11402;51.374;6.594;2023-03-23T01:27:40;12.50;99.90
22471;DHT22;11402;51.374;6.594;2023-03-23T01:30:07;12.50;99.90
22471;DHT22;11402;51.374;6.594;2023-03-23T01:32:33;12.50;99.90
22471;DHT22;11402;51.374;6.594;2023-03-23T01:34:59;12.50;99.90
22471;DHT22;11402;51.374;6.594;2023-03-23T01:37:25;12.50;99.90
22471;DHT22;11402;51.374;6.594;2023-03-23T01:39:55;12.60;99.90
22471;DHT22;11402;51.374;6.594;2023-03-23T01:42:33;12.60;99.90
22471;DHT22;11402;51.374;6.594;2023-03-23T01:45:23;12.60;99.90
22471;DHT22;11402;51.374;6.594;2023-03-23T01:47:54;12.60;99.90
22471;DHT22;11402;51.374;6.594;2023-03-23T01:50:24;12.50;99.90
22471;DHT22;11402;51.374;6.594;2023-03-23T01:52:52;12.60;99.90
22471;DHT22;11402;51.374;6.594;2023-03-23T01:55:19;12.60;99.90
22471;DHT22;11402;51.374;6.594;2023-03-23T01:57:45;12.60;99.90
22471;DHT22;11402;51.374;6.594;2023-03-23T02:00:12;12.60;99.90
22471;DHT22;11402;51.374;6.594;2023-03-23T02:02:44;12.60;99.90
22471;DHT22;11402;51.374;6.594;2023-03-23T02:05:15;12.60;99.90
22471;DHT22;11402;51.374;6.594;2023-03-23T02:07:43;12.60;99.90
22471;DHT22;11402;51.374;6.594;2023-03-23T02:10:09;12.60;99.90
22471;DHT22;11402;51.374;6.594;2023-03-23T02:12:35;12.60;99.90
22471;DHT22;11402;51.374;6.594;2023-03-23T02:15:01;12.50;99.90
22471;DHT22;11402;51.374;6.594;2023-03-23T02:17:37;12.50;99.90
22471;DHT22;11402;51.374;6.594;2023-03-23T02:20:48;12.50;99.90
22471;DHT22;11402;51.374;6.594;2023-03-23T02:29:03;12.50;99.90
22471;DHT22;11402;51.374;6.594;2023-03-23T02:37:21;12.40;99.90
22471;DHT22;11402;51.374;6.594;2023-03-23T02:39:49;12.30;99.90
22471;DHT22;11402;51.374;6.594;2023-03-23T02:42:18;12.30;99.90
22471;DHT22;11402;51.374;6.594;2023-03-23T02:44:46;12.30;99.90
22471;DHT22;11402;51.374;6.594;2023-03-23T02:47:20;12.20;99.90
22471;DHT22;11402;51.374;6.594;2023-03-23T02:49:47;12.20;99.90
22471;DHT22;11402;51.374;6.594;2023-03-23T02:52:23;12.20;99.90
22471;DHT22;11402;51.374;6.594;2023-03-23T02:54:51;12.20;99.90
22471;DHT22;11402;51.374;6.594;2023-03-23T02:57:18;12.20;99.90
22471;DHT22;11402;51.374;6.594;2023-03-23T02:59:44;12.20;99.90
22471;DHT22;11402;51.374;6.594;2023-03-23T03:02:14;12.20;99.90
22471;DHT22;11402;51.374;6.594;2023-03-23T03:04:54;12.10;99.90
22471;DHT22;11402;51.374;6.594;2023-03-23T03:10:22;12.20;99.90
22471;DHT22;11402;51.374;6.594;2023-03-23T03:13:10;12.10;99.90
22471;DHT22;11402;51.374;6.594;2023-03-23T03:15:51;12.10;99.90
22471;DHT22;11402;51.374;6.594;2023-03-23T03:18:34;12.10;99.90
22471;DHT22;11402;51.374;6.594;2023-03-23T03:21:06;12.10;99.90
22471;DHT22;11402;51.374;6.594;2023-03-23T03:23:33;12.10;99.90
22471;DHT22;11402;51.374;6.594;2023-03-23T03:26:01;12.10;99.90
22471;DHT22;11402;51.374;6.594;2023-03-23T03:28:30;12.10;99.90
22471;DHT22;11402;51.374;6.594;2023-03-23T03:30:58;12.20;99.90
22471;DHT22;11402;51.374;6.594;2023-03-23T03:33:26;12.10;99.90
22471;DHT22;11402;51.374;6.594;2023-03-23T03:35:58;12.10;99.90
22471;DHT22;11402;51.374;6.594;2023-03-23T03:38:25;12.10;99.90
22471;DHT22;11402;51.374;6.594;2023-03-23T03:40:52;12.10;99.90
22471;DHT22;11402;51.374;6.594;2023-03-23T03:43:17;12.10;99.90
22471;DHT22;11402;51.374;6.594;2023-03-23T03:45:43;12.10;99.90
22471;DHT22;11402;51.374;6.594;2023-03-23T03:48:10;12.20;99.90
22471;DHT22;11402;51.374;6.594;2023-03-23T03:50:36;12.10;99.90
22471;DHT22;11402;51.374;6.594;2023-03-23T03:53:01;12.10;99.90
22471;DHT22;11402;51.374;6.594;2023-03-23T03:55:27;12.20;99.90
22471;DHT22;11402;51.374;6.594;2023-03-23T03:57:56;12.20;99.90
22471;DHT22;11402;51.374;6.594;2023-03-23T04:00:22;12.20;99.90
22471;DHT22;11402;51.374;6.594;2023-03-23T04:02:49;12.30;99.90
22471;DHT22;11402;51.374;6.594;2023-03-23T04:05:21;12.30;99.90
22471;DHT22;11402;51.374;6.594;2023-03-23T04:07:47;12.30;99.90
22471;DHT22;11402;51.374;6.594;2023-03-23T04:10:17;12.30;99.90
22471;DHT22;11402;51.374;6.594;2023-03-23T04:12:45;12.40;99.90
22471;DHT22;11402;51.374;6.594;2023-03-23T04:15:10;12.50;99.90
22471;DHT22;11402;51.374;6.594;2023-03-23T04:17:36;12.50;99.90
22471;DHT22;11402;51.374;6.594;2023-03-23T04:20:03;12.60;99.90
22471;DHT22;11402;51.374;6.594;2023-03-23T04:22:38;12.60;99.90
22471;DHT22;11402;51.374;6.594;2023-03-23T04:25:04;12.50;99.90
22471;DHT22;11402;51.374;6.594;2023-03-23T04:27:31;12.60;99.90
22471;DHT22;11402;51.374;6.594;2023-03-23T04:29:58;12.60;99.90
22471;DHT22;11402;51.374;6.594;2023-03-23T04:32:27;12.60;99.90
22471;DHT22;11402;51.374;6.594;2023-03-23T04:34:55;12.70;99.90
22471;DHT22;11402;51.374;6.594;2023-03-23T04:37:21;12.60;99.90
22471;DHT22;11402;51.374;6.594;2023-03-23T04:39:51;12.60;99.90
22471;DHT22;11402;51.374;6.594;2023-03-23T04:42:28;12.60;99.90
22471;DHT22;11402;51.374;6.594;2023-03-23T04:44:58;12.60;99.90
22471;DHT22;11402;51.374;6.594;2023-03-23T04:47:25;12.60;99.90
22471;DHT22;11402;51.374;6.594;2023-03-23T04:49:55;12.60;99.90
22471;DHT22;11402;51.374;6.594;2023-03-23T04:52:21;12.60;99.90
22471;DHT22;11402;51.374;6.594;2023-03-23T04:54:47;12.60;99.90
22471;DHT22;11402;51.374;6.594;2023-03-23T04:57:13;12.50;99.90
22471;DHT22;11402;51.374;6.594;2023-03-23T04:59:40;12.50;99.90
22471;DHT22;11402;51.374;6.594;2023-03-23T05:02:07;12.60;99.90
22471;DHT22;11402;51.374;6.594;2023-03-23T05:04:32;12.60;99.90
22471;DHT22;11402;51.374;6.594;2023-03-23T05:06:58;12.70;99.90
22471;DHT22;11402;51.374;6.594;2023-03-23T05:09:24;12.60;99.90
22471;DHT22;11402;51.374;6.594;2023-03-23T05:11:49;12.60;99.90
22471;DHT22;11402;51.374;6.594;2023-03-23T05:14:15;12.60;99.90
22471;DHT22;11402;51.374;6.594;2023-03-23T05:16:41;12.60;99.90
22471;DHT22;11402;51.374;6.594;2023-03-23T05:19:07;12.70;99.90
22471;DHT22;11402;51.374;6.594;2023-03-23T05:21:33;12.70;99.90
22471;DHT22;11402;51.374;6.594;2023-03-23T05:23:59;12.70;99.90
22471;DHT22;11402;51.374;6.594;2023-03-23T05:26:26;12.60;99.90
22471;DHT22;11402;51.374;6.594;2023-03-23T05:28:55;12.60;99.90
22471;DHT22;11402;51.374;6.594;2023-03-23T05:31:21;12.60;99.90
22471;DHT22;11402;51.374;6.594;2023-03-23T05:33:48;12.60;99.90
22471;DHT22;11402;51.374;6.594;2023-03-23T05:36:14;12.70;99.90
22471;DHT22;11402;51.374;6.594;2023-03-23T05:38:40;12.70;99.90
22471;DHT22;11402;51.374;6.594;2023-03-23T05:41:14;12.70;99.90
22471;DHT22;11402;51.374;6.594;2023-03-23T05:43:40;12.60;99.90
22471;DHT22;11402;51.374;6.594;2023-03-23T05:46:06;12.60;99.90
22471;DHT22;11402;51.374;6.594;2023-03-23T05:48:32;12.70;99.90
22471;DHT22;11402;51.374;6.594;2023-03-23T05:50:58;12.60;99.90
22471;DHT22;11402;51.374;6.594;2023-03-23T05:53:24;12.70;99.90
22471;DHT22;11402;51.374;6.594;2023-03-23T05:55:51;12.70;99.90
22471;DHT22;11402;51.374;6.594;2023-03-23T05:58:16;12.70;99.90
22471;DHT22;11402;51.374;6.594;2023-03-23T06:00:42;12.50;99.90
22471;DHT22;11402;51.374;6.594;2023-03-23T06:03:08;12.60;99.90
22471;DHT22;11402;51.374;6.594;2023-03-23T06:05:33;12.50;99.90
22471;DHT22;11402;51.374;6.594;2023-03-23T06:07:59;12.60;99.90
22471;DHT22;11402;51.374;6.594;2023-03-23T06:10:25;12.60;99.90
22471;DHT22;11402;51.374;6.594;2023-03-23T06:12:52;12.60;99.90
22471;DHT22;11402;51.374;6.594;2023-03-23T06:15:18;12.70;99.90
22471;DHT22;11402;51.374;6.594;2023-03-23T06:17:44;12.70;99.90
22471;DHT22;11402;51.374;6.594;2023-03-23T06:20:10;12.60;99.90
22471;DHT22;11402;51.374;6.594;2023-03-23T06:22:37;12.60;99.90
22471;DHT22;11402;51.374;6.594;2023-03-23T06:25:04;12.60;99.90
22471;DHT22;11402;51.374;6.594;2023-03-23T06:27:30;12.60;99.90
22471;DHT22;11402;51.374;6.594;2023-03-23T06:29:55;12.60;99.90
22471;DHT22;11402;51.374;6.594;2023-03-23T06:32:22;12.60;99.90
22471;DHT22;11402;51.374;6.594;2023-03-23T06:34:48;12.60;99.90
22471;DHT22;11402;51.374;6.594;2023-03-23T06:37:13;12.60;99.90
22471;DHT22;11402;51.374;6.594;2023-03-23T06:39:39;12.60;99.90
22471;DHT22;11402;51.374;6.594;2023-03-23T06:42:09;12.60;99.90
22471;DHT22;11402;51.374;6.594;2023-03-23T06:44:36;12.70;99.90
22471;DHT22;11402;51.374;6.594;2023-03-23T06:47:02;12.70;99.90
22471;DHT22;11402;51.374;6.594;2023-03-23T06:49:27;12.80;99.90
22471;DHT22;11402;51.374;6.594;2023-03-23T06:51:53;12.80;99.90
22471;DHT22;11402;51.374;6.594;2023-03-23T06:54:19;12.80;99.90
22471;DHT22;11402;51.374;6.594;2023-03-23T06:56:45;12.80;99.90
22471;DHT22;11402;51.374;6.594;2023-03-23T06:59:10;12.90;99.90
22471;DHT22;11402;51.374;6.594;2023-03-23T07:01:36;12.90;99.90
22471;DHT22;11402;51.374;6.594;2023-03-23T07:04:02;12.90;99.90
22471;DHT22;11402;51.374;6.594;2023-03-23T07:06:28;12.80;99.90
22471;DHT22;11402;51.374;6.594;2023-03-23T07:08:53;12.90;99.90
22471;DHT22;11402;51.374;6.594;2023-03-23T07:11:19;12.90;99.90
22471;DHT22;11402;51.374;6.594;2023-03-23T07:13:44;12.90;99.90
22471;DHT22;11402;51.374;6.594;2023-03-23T07:16:11;13.00;99.90
22471;DHT22;11402;51.374;6.594;2023-03-23T07:18:37;13.20;99.90
22471;DHT22;11402;51.374;6.594;2023-03-23T07:21:02;13.10;99.90
22471;DHT22;11402;51.374;6.594;2023-03-23T07:23:29;13.10;99.90
22471;DHT22;11402;51.374;6.594;2023-03-23T07:25:55;13.10;99.90
22471;DHT22;11402;51.374;6.594;2023-03-23T07:28:22;13.10;99.90
22471;DHT22;11402;51.374;6.594;2023-03-23T07:30:47;13.10;99.90
22471;DHT22;11402;51.374;6.594;2023-03-23T07:33:13;13.00;99.90
22471;DHT22;11402;51.374;6.594;2023-03-23T07:35:39;13.00;99.90
22471;DHT22;11402;51.374;6.594;2023-03-23T07:38:05;13.00;99.90
22471;DHT22;11402;51.374;6.594;2023-03-23T07:40:32;13.10;99.90
22471;DHT22;11402;51.374;6.594;2023-03-23T07:43:02;13.10;99.90
22471;DHT22;11402;51.374;6.594;2023-03-23T07:45:29;13.10;99.90
22471;DHT22;11402;51.374;6.594;2023-03-23T07:47:55;13.00;99.90
22471;DHT22;11402;51.374;6.594;2023-03-23T07:50:22;13.00;99.90
22471;DHT22;11402;51.374;6.594;2023-03-23T07:52:56;13.10;99.90
22471;DHT22;11402;51.374;6.594;2023-03-23T07:55:22;13.00;99.90
22471;DHT22;11402;51.374;6.594;2023-03-23T07:57:50;13.10;99.90
22471;DHT22;11402;51.374;6.594;2023-03-23T08:00:17;13.00;99.90
22471;DHT22;11402;51.374;6.594;2023-03-23T08:02:55;13.10;99.90
22471;DHT22;11402;51.374;6.594;2023-03-23T08:05:22;13.10;99.90
22471;DHT22;11402;51.374;6.594;2023-03-23T08:07:48;13.10;99.90
22471;DHT22;11402;51.374;6.594;2023-03-23T08:10:15;13.20;99.90
22471;DHT22;11402;51.374;6.594;2023-03-23T08:12:43;13.30;99.90
22471;DHT22;11402;51.374;6.594;2023-03-23T08:15:10;13.30;99.90
22471;DHT22;11402;51.374;6.594;2023-03-23T08:17:42;13.20;99.90
22471;DHT22;11402;51.374;6.594;2023-03-23T08:20:10;13.30;99.90
22471;DHT22;11402;51.374;6.594;2023-03-23T08:22:42;13.40;99.90
22471;DHT22;11402;51.374;6.594;2023-03-23T08:25:11;13.40;99.90
22471;DHT22;11402;51.374;6.594;2023-03-23T08:27:37;13.50;99.90
22471;DHT22;11402;51.374;6.594;2023-03-23T08:30:06;13.50;99.90
22471;DHT22;11402;51.374;6.594;2023-03-23T08:32:32;13.60;99.90
22471;DHT22;11402;51.374;6.594;2023-03-23T08:34:58;13.70;99.90
22471;DHT22;11402;51.374;6.594;2023-03-23T08:37:24;13.70;99.90
22471;DHT22;11402;51.374;6.594;2023-03-23T08:39:54;13.80;99.90
22471;DHT22;11402;51.374;6.594;2023-03-23T08:42:20;13.80;99.90
22471;DHT22;11402;51.374;6.594;2023-03-23T08:48:08;13.80;99.90
22471;DHT22;11402;51.374;6.594;2023-03-23T08:50:34;13.80;99.90
22471;DHT22;11402;51.374;6.594;2023-03-23T08:53:00;13.80;99.90
22471;DHT22;11402;51.374;6.594;2023-03-23T08:55:26;13.70;99.90
22471;DHT22;11402;51.374;6.594;2023-03-23T08:57:53;13.70;99.90
22471;DHT22;11402;51.374;6.594;2023-03-23T09:00:21;13.60;99.90
22471;DHT22;11402;51.374;6.594;2023-03-23T09:02:51;13.60;99.90
22471;DHT22;11402;51.374;6.594;2023-03-23T09:05:19;13.60;99.90
22471;DHT22;11402;51.374;6.594;2023-03-23T09:07:47;13.60;99.90
22471;DHT22;11402;51.374;6.594;2023-03-23T09:10:13;13.50;99.90
22471;DHT22;11402;51.374;6.594;2023-03-23T09:12:40;13.60;99.90
22471;DHT22;11402;51.374;6.594;2023-03-23T09:15:07;13.60;99.90
22471;DHT22;11402;51.374;6.594;2023-03-23T09:17:39;13.50;99.90
22471;DHT22;11402;51.374;6.594;2023-03-23T09:20:07;13.40;99.90
22471;DHT22;11402;51.374;6.594;2023-03-23T09:22:40;13.40;99.90
22471;DHT22;11402;51.374;6.594;2023-03-23T09:25:08;13.50;99.90
22471;DHT22;11402;51.374;6.594;2023-03-23T09:27:35;13.50;99.90
22471;DHT22;11402;51.374;6.594;2023-03-23T09:30:04;13.50;99.90
22471;DHT22;11402;51.374;6.594;2023-03-23T09:32:33;13.00;99.90
22471;DHT22;11402;51.374;6.594;2023-03-23T09:35:01;12.50;99.90
22471;DHT22;11402;51.374;6.594;2023-03-23T09:37:27;12.50;99.90
22471;DHT22;11402;51.374;6.594;2023-03-23T09:39:53;12.40;99.90
22471;DHT22;11402;51.374;6.594;2023-03-23T09:45:15;12.10;99.90
22471;DHT22;11402;51.374;6.594;2023-03-23T09:47:52;12.00;99.90
22471;DHT22;11402;51.374;6.594;2023-03-23T09:50:24;11.90;99.90
22471;DHT22;11402;51.374;6.594;2023-03-23T09:52:56;11.80;99.90
22471;DHT22;11402;51.374;6.594;2023-03-23T09:55:23;12.00;99.90
22471;DHT22;11402;51.374;6.594;2023-03-23T09:58:12;12.10;99.90
22471;DHT22;11402;51.374;6.594;2023-03-23T10:01:01;12.10;99.90
22471;DHT22;11402;51.374;6.594;2023-03-23T10:03:35;12.10;99.90
22471;DHT22;11402;51.374;6.594;2023-03-23T10:06:02;12.10;99.90
22471;DHT22;11402;51.374;6.594;2023-03-23T10:08:31;12.10;99.90
22471;DHT22;11402;51.374;6.594;2023-03-23T10:11:20;12.10;99.90
22471;DHT22;11402;51.374;6.594;2023-03-23T10:16:45;12.20;99.90
22471;DHT22;11402;51.374;6.594;2023-03-23T10:19:36;12.40;99.90
22471;DHT22;11402;51.374;6.594;2023-03-23T10:22:08;12.20;99.90
22471;DHT22;11402;51.374;6.594;2023-03-23T10:24:39;12.10;99.90
22471;DHT22;11402;51.374;6.594;2023-03-23T10:27:26;12.10;99.90
22471;DHT22;11402;51.374;6.594;2023-03-23T10:30:45;12.00;99.90
22471;DHT22;11402;51.374;6.594;2023-03-23T10:36:09;12.10;99.90
22471;DHT22;11402;51.374;6.594;2023-03-23T10:39:06;11.90;99.90
22471;DHT22;11402;51.374;6.594;2023-03-23T10:41:35;11.90;99.90
22471;DHT22;11402;51.374;6.594;2023-03-23T10:44:15;11.80;99.90
22471;DHT22;11402;51.374;6.594;2023-03-23T10:49:19;11.90;99.90
22471;DHT22;11402;51.374;6.594;2023-03-23T10:51:52;11.80;99.90
22471;DHT22;11402;51.374;6.594;2023-03-23T10:54:39;11.90;99.90
22471;DHT22;11402;51.374;6.594;2023-03-23T10:57:27;11.80;99.90
22471;DHT22;11402;51.374;6.594;2023-03-23T11:00:21;11.90;99.90
22471;DHT22;11402;51.374;6.594;2023-03-23T11:03:03;12.00;99.90
22471;DHT22;11402;51.374;6.594;2023-03-23T11:05:54;12.00;99.90
22471;DHT22;11402;51.374;6.594;2023-03-23T11:08:25;12.20;99.90
22471;DHT22;11402;51.374;6.594;2023-03-23T11:11:07;12.10;99.90
22471;DHT22;11402;51.374;6.594;2023-03-23T11:13:47;12.30;99.90
22471;DHT22;11402;51.374;6.594;2023-03-23T11:16:30;12.20;99.90
22471;DHT22;11402;51.374;6.594;2023-03-23T11:18:58;12.20;99.90
22471;DHT22;11402;51.374;6.594;2023-03-23T11:21:25;12.40;99.90
22471;DHT22;11402;51.374;6.594;2023-03-23T11:23:55;12.20;99.90
22471;DHT22;11402;51.374;6.594;2023-03-23T11:26:28;12.40;99.90
22471;DHT22;11402;51.374;6.594;2023-03-23T11:31:30;12.50;99.90
22471;DHT22;11402;51.374;6.594;2023-03-23T11:34:00;12.50;99.90
22471;DHT22;11402;51.374;6.594;2023-03-23T11:36:33;12.50;99.90
22471;DHT22;11402;51.374;6.594;2023-03-23T11:38:59;12.70;99.90
22471;DHT22;11402;51.374;6.594;2023-03-23T11:41:28;12.60;99.90
22471;DHT22;11402;51.374;6.594;2023-03-23T11:43:54;12.60;99.90
22471;DHT22;11402;51.374;6.594;2023-03-23T11:46:34;12.70;99.90
22471;DHT22;11402;51.374;6.594;2023-03-23T11:49:08;12.60;99.90
22471;DHT22;11402;51.374;6.594;2023-03-23T11:51:56;12.60;99.90
22471;DHT22;11402;51.374;6.594;2023-03-23T11:54:43;12.80;99.90
22471;DHT22;11402;51.374;6.594;2023-03-23T11:57:12;12.60;99.90
22471;DHT22;11402;51.374;6.594;2023-03-23T11:59:39;12.50;99.90
22471;DHT22;11402;51.374;6.594;2023-03-23T12:05:28;12.60;99.90
22471;DHT22;11402;51.374;6.594;2023-03-23T12:08:08;12.60;99.90
22471;DHT22;11402;51.374;6.594;2023-03-23T12:16:22;12.70;99.90
22471;DHT22;11402;51.374;6.594;2023-03-23T12:19:09;12.70;99.90
22471;DHT22;11402;51.374;6.594;2023-03-23T12:24:57;12.60;99.90
22471;DHT22;11402;51.374;6.594;2023-03-23T12:27:55;12.80;99.90
22471;DHT22;11402;51.374;6.594;2023-03-23T12:30:52;12.80;99.90
22471;DHT22;11402;51.374;6.594;2023-03-23T12:44:13;13.40;99.90
22471;DHT22;11402;51.374;6.594;2023-03-23T12:47:11;13.20;99.90
22471;DHT22;11402;51.374;6.594;2023-03-23T12:49:41;13.20;99.90
22471;DHT22;11402;51.374;6.594;2023-03-23T12:52:45;13.30;99.90
22471;DHT22;11402;51.374;6.594;2023-03-23T12:56:04;13.40;99.90
22471;DHT22;11402;51.374;6.594;2023-03-23T12:58:12;13.40;99.90
22471;DHT22;11402;51.374;6.594;2023-03-23T13:01:05;13.60;99.90
22471;DHT22;11402;51.374;6.594;2023-03-23T13:04:04;13.60;99.90
22471;DHT22;11402;51.374;6.594;2023-03-23T13:06:39;13.60;99.90
22471;DHT22;11402;51.374;6.594;2023-03-23T13:09:15;13.60;99.90
22471;DHT22;11402;51.374;6.594;2023-03-23T13:11:43;13.60;99.90
22471;DHT22;11402;51.374;6.594;2023-03-23T13:14:24;13.70;99.90
22471;DHT22;11402;51.374;6.594;2023-03-23T13:17:20;13.60;99.90
22471;DHT22;11402;51.374;6.594;2023-03-23T13:23:20;13.70;99.90
22471;DHT22;11402;51.374;6.594;2023-03-23T13:26:12;13.70;99.90
22471;DHT22;11402;51.374;6.594;2023-03-23T13:29:20;13.90;99.90
22471;DHT22;11402;51.374;6.594;2023-03-23T13:31:47;14.00;99.90
22471;DHT22;11402;51.374;6.594;2023-03-23T13:34:24;14.00;99.90
22471;DHT22;11402;51.374;6.594;2023-03-23T13:36:56;13.90;99.90
22471;DHT22;11402;51.374;6.594;2023-03-23T13:39:25;13.90;99.90
22471;DHT22;11402;51.374;6.594;2023-03-23T13:42:03;14.00;99.90
22471;DHT22;11402;51.374;6.594;2023-03-23T13:55:20;14.40;99.90
22471;DHT22;11402;51.374;6.594;2023-03-23T13:57:52;14.40;99.90
22471;DHT22;11402;51.374;6.594;2023-03-23T14:03:24;14.30;99.90
22471;DHT22;11402;51.374;6.594;2023-03-23T14:08:38;14.20;99.90
22471;DHT22;11402;51.374;6.594;2023-03-23T14:11:14;14.40;99.90
22471;DHT22;11402;51.374;6.594;2023-03-23T14:13:58;14.40;99.90
22471;DHT22;11402;51.374;6.594;2023-03-23T14:16:32;14.50;99.90
22471;DHT22;11402;51.374;6.594;2023-03-23T14:19:02;14.60;99.90
22471;DHT22;11402;51.374;6.594;2023-03-23T14:21:36;14.60;99.90
22471;DHT22;11402;51.374;6.594;2023-03-23T14:24:10;14.60;99.90
22471;DHT22;11402;51.374;6.594;2023-03-23T14:26:36;14.50;99.90
22471;DHT22;11402;51.374;6.594;2023-03-23T14:29:03;14.50;99.90
22471;DHT22;11402;51.374;6.594;2023-03-23T14:31:30;14.50;99.90
22471;DHT22;11402;51.374;6.594;2023-03-23T14:33:56;14.30;99.90
22471;DHT22;11402;51.374;6.594;2023-03-23T14:36:27;14.40;99.90
22471;DHT22;11402;51.374;6.594;2023-03-23T14:39:21;14.40;99.90
22471;DHT22;11402;51.374;6.594;2023-03-23T14:41:47;14.30;99.90
22471;DHT22;11402;51.374;6.594;2023-03-23T14:44:17;14.30;99.90
22471;DHT22;11402;51.374;6.594;2023-03-23T14:46:44;14.30;99.90
22471;DHT22;11402;51.374;6.594;2023-03-23T14:49:13;14.30;99.90
22471;DHT22;11402;51.374;6.594;2023-03-23T14:51:47;14.30;99.90
22471;DHT22;11402;51.374;6.594;2023-03-23T14:54:14;14.40;99.90
22471;DHT22;11402;51.374;6.594;2023-03-23T14:56:41;14.40;99.90
22471;DHT22;11402;51.374;6.594;2023-03-23T14:59:10;14.40;99.90
22471;DHT22;11402;51.374;6.594;2023-03-23T15:01:37;14.70;99.90
22471;DHT22;11402;51.374;6.594;2023-03-23T15:04:09;14.60;99.90
22471;DHT22;11402;51.374;6.594;2023-03-23T15:06:37;14.70;99.90
22471;DHT22;11402;51.374;6.594;2023-03-23T15:09:09;14.70;99.90
22471;DHT22;11402;51.374;6.594;2023-03-23T15:11:38;14.70;99.90
22471;DHT22;11402;51.374;6.594;2023-03-23T15:14:14;14.60;99.90
22471;DHT22;11402;51.374;6.594;2023-03-23T15:16:46;14.50;99.90
22471;DHT22;11402;51.374;6.594;2023-03-23T15:19:35;14.50;99.90
22471;DHT22;11402;51.374;6.594;2023-03-23T15:22:12;14.50;99.90
22471;DHT22;11402;51.374;6.594;2023-03-23T15:24:41;14.50;99.90
22471;DHT22;11402;51.374;6.594;2023-03-23T15:29:46;14.40;99.90
22471;DHT22;11402;51.374;6.594;2023-03-23T15:32:11;14.30;99.90
22471;DHT22;11402;51.374;6.594;2023-03-23T15:34:37;14.30;99.90
22471;DHT22;11402;51.374;6.594;2023-03-23T15:37:16;14.30;99.90
22471;DHT22;11402;51.374;6.594;2023-03-23T15:39:44;14.30;99.90
22471;DHT22;11402;51.374;6.594;2023-03-23T15:42:28;14.30;99.90
22471;DHT22;11402;51.374;6.594;2023-03-23T15:50:11;14.30;99.90
22471;DHT22;11402;51.374;6.594;2023-03-23T15:52:38;14.30;99.90
22471;DHT22;11402;51.374;6.594;2023-03-23T15:55:19;14.30;99.90
22471;DHT22;11402;51.374;6.594;2023-03-23T15:57:45;14.30;99.90
22471;DHT22;11402;51.374;6.594;2023-03-23T16:00:11;14.30;99.90
22471;DHT22;11402;51.374;6.594;2023-03-23T16:02:37;14.30;99.90
22471;DHT22;11402;51.374;6.594;2023-03-23T16:05:03;14.30;99.90
22471;DHT22;11402;51.374;6.594;2023-03-23T16:07:29;14.40;99.90
22471;DHT22;11402;51.374;6.594;2023-03-23T16:09:55;14.40;99.90
22471;DHT22;11402;51.374;6.594;2023-03-23T16:12:20;14.40;99.90
22471;DHT22;11402;51.374;6.594;2023-03-23T16:14:46;14.30;99.90
22471;DHT22;11402;51.374;6.594;2023-03-23T16:17:15;14.40;99.90
22471;DHT22;11402;51.374;6.594;2023-03-23T16:19:41;14.30;99.90
22471;DHT22;11402;51.374;6.594;2023-03-23T16:22:08;14.30;99.90
22471;DHT22;11402;51.374;6.594;2023-03-23T16:24:33;14.30;99.90
22471;DHT22;11402;51.374;6.594;2023-03-23T16:26:59;14.30;99.90
22471;DHT22;11402;51.374;6.594;2023-03-23T16:29:25;14.30;99.90
22471;DHT22;11402;51.374;6.594;2023-03-23T16:31:50;14.20;99.90
22471;DHT22;11402;51.374;6.594;2023-03-23T16:34:16;14.20;99.90
22471;DHT22;11402;51.374;6.594;2023-03-23T16:36:41;14.10;99.90
22471;DHT22;11402;51.374;6.594;2023-03-23T16:39:10;14.20;99.90
22471;DHT22;11402;51.374;6.594;2023-03-23T16:41:36;14.20;99.90
22471;DHT22;11402;51.374;6.594;2023-03-23T16:44:02;14.20;99.90
22471;DHT22;11402;51.374;6.594;2023-03-23T16:46:27;14.30;99.90
22471;DHT22;11402;51.374;6.594;2023-03-23T16:48:54;14.20;99.90
22471;DHT22;11402;51.374;6.594;2023-03-23T16:51:20;14.20;99.90
22471;DHT22;11402;51.374;6.594;2023-03-23T16:53:45;14.20;99.90
22471;DHT22;11402;51.374;6.594;2023-03-23T16:56:11;14.20;99.90
22471;DHT22;11402;51.374;6.594;2023-03-23T16:58:37;14.10;99.90
22471;DHT22;11402;51.374;6.594;2023-03-23T17:01:02;14.10;99.90
22471;DHT22;11402;51.374;6.594;2023-03-23T17:03:28;14.10;99.90
22471;DHT22;11402;51.374;6.594;2023-03-23T17:05:54;14.10;99.90
22471;DHT22;11402;51.374;6.594;2023-03-23T17:08:20;14.00;99.90
22471;DHT22;11402;51.374;6.594;2023-03-23T17:10:46;14.00;99.90
22471;DHT22;11402;51.374;6.594;2023-03-23T17:13:12;14.00;99.90